sensor_id;sensor_type;location;lat;lon;timestamp;P1;durP1;ratioP1;P2;durP2;ratioP2
55575;SDS011;41437;45.478;9.116;2023-04-24T00:01:57;12.77;;;9.40;;
55575;SDS011;41437;45.478;9.116;2023-04-24T00:05:00;12.35;;;9.40;;
55575;SDS011;41437;45.478;9.116;2023-04-24T00:08:02;10.85;;;8.60;;
55575;SDS011;41437;45.478;9.116;2023-04-24T00:11:04;11.80;;;8.65;;
55575;SDS011;41437;45.478;9.116;2023-04-24T00:14:06;13.70;;;8.75;;
55575;SDS011;41437;45.478;9.116;2023-04-24T00:17:07;11.68;;;7.57;;
55575;SDS011;41437;45.478;9.116;2023-04-24T00:20:10;10.43;;;7.47;;
55575;SDS011;41437;45.478;9.116;2023-04-24T00:23:11;10.05;;;7.75;;
55575;SDS011;41437;45.478;9.116;2023-04-24T00:26:13;11.65;;;8.32;;
55575;SDS011;41437;45.478;9.116;2023-04-24T00:29:14;10.95;;;8.10;;
55575;SDS011;41437;45.478;9.116;2023-04-24T00:32:16;11.07;;;8.60;;
55575;SDS011;41437;45.478;9.116;2023-04-24T00:35:19;13.68;;;9.35;;
55575;SDS011;41437;45.478;9.116;2023-04-24T00:38:20;11.77;;;8.82;;
55575;SDS011;41437;45.478;9.116;2023-04-24T00:41:22;12.32;;;9.35;;
55575;SDS011;41437;45.478;9.116;2023-04-24T00:44:24;17.52;;;9.80;;
55575;SDS011;41437;45.478;9.116;2023-04-24T00:47:25;12.38;;;9.55;;
55575;SDS011;41437;45.478;9.116;2023-04-24T00:50:28;13.20;;;9.88;;
55575;SDS011;41437;45.478;9.116;2023-04-24T00:53:30;13.30;;;10.23;;
55575;SDS011;41437;45.478;9.116;2023-04-24T00:56:32;12.40;;;9.98;;
55575;SDS011;41437;45.478;9.116;2023-04-24T00:59:33;14.07;;;10.60;;
55575;SDS011;41437;45.478;9.116;2023-04-24T01:02:36;13.40;;;10.30;;
55575;SDS011;41437;45.478;9.116;2023-04-24T01:05:41;12.77;;;9.43;;
55575;SDS011;41437;45.478;9.116;2023-04-24T01:08:43;13.90;;;9.70;;
55575;SDS011;41437;45.478;9.116;2023-04-24T01:11:44;11.50;;;8.90;;
55575;SDS011;41437;45.478;9.116;2023-04-24T01:14:45;12.35;;;9.85;;
55575;SDS011;41437;45.478;9.116;2023-04-24T01:17:47;17.30;;;11.55;;
55575;SDS011;41437;45.478;9.116;2023-04-24T01:20:50;14.32;;;10.88;;
55575;SDS011;41437;45.478;9.116;2023-04-24T01:23:53;15.52;;;11.98;;
55575;SDS011;41437;45.478;9.116;2023-04-24T01:26:55;14.73;;;11.98;;
55575;SDS011;41437;45.478;9.116;2023-04-24T01:29:56;17.50;;;13.88;;
55575;SDS011;41437;45.478;9.116;2023-04-24T01:32:58;20.42;;;16.27;;
55575;SDS011;41437;45.478;9.116;2023-04-24T01:35:59;20.00;;;15.13;;
55575;SDS011;41437;45.478;9.116;2023-04-24T01:39:02;21.88;;;15.05;;
55575;SDS011;41437;45.478;9.116;2023-04-24T01:42:04;20.93;;;15.80;;
55575;SDS011;41437;45.478;9.116;2023-04-24T01:45:06;22.85;;;16.55;;
55575;SDS011;41437;45.478;9.116;2023-04-24T01:48:11;22.88;;;16.85;;
55575;SDS011;41437;45.478;9.116;2023-04-24T01:51:12;20.85;;;14.95;;
55575;SDS011;41437;45.478;9.116;2023-04-24T01:54:15;20.13;;;14.98;;
55575;SDS011;41437;45.478;9.116;2023-04-24T01:57:16;19.02;;;14.50;;
55575;SDS011;41437;45.478;9.116;2023-04-24T02:00:17;22.20;;;16.00;;
55575;SDS011;41437;45.478;9.116;2023-04-24T02:03:19;23.23;;;16.67;;
55575;SDS011;41437;45.478;9.116;2023-04-24T02:06:20;19.33;;;14.93;;
55575;SDS011;41437;45.478;9.116;2023-04-24T02:09:23;19.77;;;14.38;;
55575;SDS011;41437;45.478;9.116;2023-04-24T02:12:25;19.73;;;14.13;;
55575;SDS011;41437;45.478;9.116;2023-04-24T02:15:26;19.88;;;13.32;;
55575;SDS011;41437;45.478;9.116;2023-04-24T02:18:27;17.38;;;13.50;;
55575;SDS011;41437;45.478;9.116;2023-04-24T02:21:29;17.13;;;11.68;;
55575;SDS011;41437;45.478;9.116;2023-04-24T02:24:32;19.08;;;12.35;;
55575;SDS011;41437;45.478;9.116;2023-04-24T02:27:33;14.52;;;10.90;;
55575;SDS011;41437;45.478;9.116;2023-04-24T02:30:34;15.88;;;11.95;;
55575;SDS011;41437;45.478;9.116;2023-04-24T02:33:36;14.43;;;10.65;;
55575;SDS011;41437;45.478;9.116;2023-04-24T02:36:37;14.23;;;9.90;;
55575;SDS011;41437;45.478;9.116;2023-04-24T02:39:40;12.98;;;9.50;;
55575;SDS011;41437;45.478;9.116;2023-04-24T02:42:41;12.38;;;9.95;;
55575;SDS011;41437;45.478;9.116;2023-04-24T02:45:43;13.05;;;9.55;;
55575;SDS011;41437;45.478;9.116;2023-04-24T02:48:44;14.68;;;9.98;;
55575;SDS011;41437;45.478;9.116;2023-04-24T02:51:46;13.95;;;9.35;;
55575;SDS011;41437;45.478;9.116;2023-04-24T02:54:48;11.20;;;8.48;;
55575;SDS011;41437;45.478;9.116;2023-04-24T02:57:50;12.10;;;9.20;;
55575;SDS011;41437;45.478;9.116;2023-04-24T03:00:53;11.23;;;8.18;;
55575;SDS011;41437;45.478;9.116;2023-04-24T03:03:54;14.20;;;9.02;;
55575;SDS011;41437;45.478;9.116;2023-04-24T03:06:55;11.68;;;8.55;;
55575;SDS011;41437;45.478;9.116;2023-04-24T03:09:58;13.60;;;9.27;;
55575;SDS011;41437;45.478;9.116;2023-04-24T03:12:59;10.48;;;8.15;;
55575;SDS011;41437;45.478;9.116;2023-04-24T03:16:00;14.70;;;8.73;;
55575;SDS011;41437;45.478;9.116;2023-04-24T03:19:02;12.18;;;8.43;;
55575;SDS011;41437;45.478;9.116;2023-04-24T03:22:03;12.90;;;9.07;;
55575;SDS011;41437;45.478;9.116;2023-04-24T03:25:06;11.80;;;8.98;;
55575;SDS011;41437;45.478;9.116;2023-04-24T03:28:09;12.10;;;8.50;;
55575;SDS011;41437;45.478;9.116;2023-04-24T03:31:10;12.85;;;9.00;;
55575;SDS011;41437;45.478;9.116;2023-04-24T03:34:12;11.90;;;9.32;;
55575;SDS011;41437;45.478;9.116;2023-04-24T03:37:13;12.38;;;8.85;;
55575;SDS011;41437;45.478;9.116;2023-04-24T03:40:16;14.20;;;9.15;;
55575;SDS011;41437;45.478;9.116;2023-04-24T03:43:17;10.55;;;8.32;;
55575;SDS011;41437;45.478;9.116;2023-04-24T03:46:18;10.77;;;7.80;;
55575;SDS011;41437;45.478;9.116;2023-04-24T03:49:20;9.60;;;7.25;;
55575;SDS011;41437;45.478;9.116;2023-04-24T03:52:22;9.68;;;7.78;;
55575;SDS011;41437;45.478;9.116;2023-04-24T03:55:24;11.02;;;7.18;;
55575;SDS011;41437;45.478;9.116;2023-04-24T03:58:26;11.68;;;8.43;;
55575;SDS011;41437;45.478;9.116;2023-04-24T04:01:27;11.65;;;8.80;;
55575;SDS011;41437;45.478;9.116;2023-04-24T04:04:29;10.90;;;8.90;;
55575;SDS011;41437;45.478;9.116;2023-04-24T04:07:30;10.77;;;8.07;;
55575;SDS011;41437;45.478;9.116;2023-04-24T04:10:33;11.35;;;7.70;;
55575;SDS011;41437;45.478;9.116;2023-04-24T04:13:34;9.77;;;7.40;;
55575;SDS011;41437;45.478;9.116;2023-04-24T04:16:35;11.48;;;7.90;;
55575;SDS011;41437;45.478;9.116;2023-04-24T04:19:37;10.95;;;7.70;;
55575;SDS011;41437;45.478;9.116;2023-04-24T04:22:38;11.27;;;7.90;;
55575;SDS011;41437;45.478;9.116;2023-04-24T04:25:41;9.73;;;7.68;;
55575;SDS011;41437;45.478;9.116;2023-04-24T04:28:42;11.95;;;8.27;;
55575;SDS011;41437;45.478;9.116;2023-04-24T04:31:44;10.75;;;7.95;;
55575;SDS011;41437;45.478;9.116;2023-04-24T04:34:45;10.45;;;8.18;;
55575;SDS011;41437;45.478;9.116;2023-04-24T04:37:49;11.07;;;8.32;;
55575;SDS011;41437;45.478;9.116;2023-04-24T04:40:52;11.43;;;8.85;;
55575;SDS011;41437;45.478;9.116;2023-04-24T04:43:54;10.63;;;8.50;;
55575;SDS011;41437;45.478;9.116;2023-04-24T04:46:58;9.90;;;8.35;;
55575;SDS011;41437;45.478;9.116;2023-04-24T04:50:00;10.85;;;7.88;;
55575;SDS011;41437;45.478;9.116;2023-04-24T04:53:02;11.85;;;8.60;;
55575;SDS011;41437;45.478;9.116;2023-04-24T04:56:05;8.90;;;7.88;;
55575;SDS011;41437;45.478;9.116;2023-04-24T04:59:06;9.77;;;7.85;;
55575;SDS011;41437;45.478;9.116;2023-04-24T05:02:08;11.52;;;7.97;;
55575;SDS011;41437;45.478;9.116;2023-04-24T05:05:09;12.48;;;8.20;;
55575;SDS011;41437;45.478;9.116;2023-04-24T05:08:11;10.18;;;8.27;;
55575;SDS011;41437;45.478;9.116;2023-04-24T05:11:14;11.30;;;8.05;;
55575;SDS011;41437;45.478;9.116;2023-04-24T05:14:15;9.20;;;7.38;;
55575;SDS011;41437;45.478;9.116;2023-04-24T05:17:17;10.20;;;6.97;;
55575;SDS011;41437;45.478;9.116;2023-04-24T05:20:19;11.43;;;7.32;;
55575;SDS011;41437;45.478;9.116;2023-04-24T05:23:20;9.38;;;6.47;;
55575;SDS011;41437;45.478;9.116;2023-04-24T05:26:23;7.93;;;6.50;;
55575;SDS011;41437;45.478;9.116;2023-04-24T05:29:24;10.60;;;6.68;;
55575;SDS011;41437;45.478;9.116;2023-04-24T05:32:26;8.88;;;6.40;;
55575;SDS011;41437;45.478;9.116;2023-04-24T05:35:28;9.55;;;6.10;;
55575;SDS011;41437;45.478;9.116;2023-04-24T05:38:29;8.70;;;6.70;;
55575;SDS011;41437;45.478;9.116;2023-04-24T05:41:32;8.93;;;6.55;;
55575;SDS011;41437;45.478;9.116;2023-04-24T05:44:33;17.63;;;7.40;;
55575;SDS011;41437;45.478;9.116;2023-04-24T05:47:34;10.02;;;6.00;;
55575;SDS011;41437;45.478;9.116;2023-04-24T05:50:36;7.75;;;5.97;;
55575;SDS011;41437;45.478;9.116;2023-04-24T05:53:37;8.00;;;6.38;;
55575;SDS011;41437;45.478;9.116;2023-04-24T05:56:40;13.48;;;6.78;;
55575;SDS011;41437;45.478;9.116;2023-04-24T06:02:44;9.82;;;5.80;;
55575;SDS011;41437;45.478;9.116;2023-04-24T06:05:45;7.82;;;5.93;;
55575;SDS011;41437;45.478;9.116;2023-04-24T06:08:46;8.40;;;5.53;;
55575;SDS011;41437;45.478;9.116;2023-04-24T06:11:49;8.13;;;5.70;;
55575;SDS011;41437;45.478;9.116;2023-04-24T06:14:52;7.57;;;4.93;;
55575;SDS011;41437;45.478;9.116;2023-04-24T06:17:55;11.18;;;5.68;;
55575;SDS011;41437;45.478;9.116;2023-04-24T06:20:56;10.90;;;5.88;;
55575;SDS011;41437;45.478;9.116;2023-04-24T06:24:00;14.02;;;5.82;;
55575;SDS011;41437;45.478;9.116;2023-04-24T06:27:03;37.20;;;7.50;;
55575;SDS011;41437;45.478;9.116;2023-04-24T06:30:05;15.70;;;6.32;;
55575;SDS011;41437;45.478;9.116;2023-04-24T06:33:07;7.28;;;5.35;;
55575;SDS011;41437;45.478;9.116;2023-04-24T06:39:12;7.78;;;4.97;;
55575;SDS011;41437;45.478;9.116;2023-04-24T06:42:15;6.32;;;4.88;;
55575;SDS011;41437;45.478;9.116;2023-04-24T06:45:16;6.95;;;5.35;;
55575;SDS011;41437;45.478;9.116;2023-04-24T06:48:18;7.90;;;5.03;;
55575;SDS011;41437;45.478;9.116;2023-04-24T06:51:19;9.80;;;4.60;;
55575;SDS011;41437;45.478;9.116;2023-04-24T06:54:20;7.68;;;4.50;;
55575;SDS011;41437;45.478;9.116;2023-04-24T06:57:23;10.13;;;5.28;;
55575;SDS011;41437;45.478;9.116;2023-04-24T07:00:24;7.40;;;4.82;;
55575;SDS011;41437;45.478;9.116;2023-04-24T07:03:26;7.35;;;4.40;;
55575;SDS011;41437;45.478;9.116;2023-04-24T07:06:27;11.38;;;4.82;;
55575;SDS011;41437;45.478;9.116;2023-04-24T07:09:31;7.72;;;3.50;;
55575;SDS011;41437;45.478;9.116;2023-04-24T07:12:36;6.43;;;3.75;;
55575;SDS011;41437;45.478;9.116;2023-04-24T07:15:37;9.23;;;4.22;;
55575;SDS011;41437;45.478;9.116;2023-04-24T07:18:40;7.50;;;3.95;;
55575;SDS011;41437;45.478;9.116;2023-04-24T07:21:42;16.20;;;5.07;;
55575;SDS011;41437;45.478;9.116;2023-04-24T07:24:43;7.05;;;4.03;;
55575;SDS011;41437;45.478;9.116;2023-04-24T07:27:46;14.00;;;4.30;;
55575;SDS011;41437;45.478;9.116;2023-04-24T07:30:50;26.00;;;4.75;;
55575;SDS011;41437;45.478;9.116;2023-04-24T07:33:53;18.88;;;5.25;;
55575;SDS011;41437;45.478;9.116;2023-04-24T07:36:57;7.85;;;3.90;;
55575;SDS011;41437;45.478;9.116;2023-04-24T07:39:59;8.75;;;3.50;;
55575;SDS011;41437;45.478;9.116;2023-04-24T07:43:02;11.98;;;4.30;;
55575;SDS011;41437;45.478;9.116;2023-04-24T07:46:03;6.63;;;3.38;;
55575;SDS011;41437;45.478;9.116;2023-04-24T07:49:04;6.35;;;3.47;;
55575;SDS011;41437;45.478;9.116;2023-04-24T07:52:06;5.70;;;3.20;;
55575;SDS011;41437;45.478;9.116;2023-04-24T07:55:07;6.30;;;3.78;;
55575;SDS011;41437;45.478;9.116;2023-04-24T07:58:10;5.53;;;3.10;;
55575;SDS011;41437;45.478;9.116;2023-04-24T08:01:11;6.95;;;2.72;;
55575;SDS011;41437;45.478;9.116;2023-04-24T08:04:12;4.78;;;2.30;;
55575;SDS011;41437;45.478;9.116;2023-04-24T08:07:14;5.90;;;2.58;;
55575;SDS011;41437;45.478;9.116;2023-04-24T08:10:16;12.73;;;3.35;;
55575;SDS011;41437;45.478;9.116;2023-04-24T08:13:18;7.35;;;2.80;;
55575;SDS011;41437;45.478;9.116;2023-04-24T08:16:20;6.47;;;2.80;;
55575;SDS011;41437;45.478;9.116;2023-04-24T08:19:21;3.83;;;2.30;;
55575;SDS011;41437;45.478;9.116;2023-04-24T08:22:23;4.28;;;1.80;;
55575;SDS011;41437;45.478;9.116;2023-04-24T08:25:24;3.17;;;1.63;;
55575;SDS011;41437;45.478;9.116;2023-04-24T08:28:28;3.97;;;2.20;;
55575;SDS011;41437;45.478;9.116;2023-04-24T08:31:29;21.75;;;3.58;;
55575;SDS011;41437;45.478;9.116;2023-04-24T08:34:31;4.43;;;1.70;;
55575;SDS011;41437;45.478;9.116;2023-04-24T08:37:32;3.38;;;1.58;;
55575;SDS011;41437;45.478;9.116;2023-04-24T08:40:34;10.15;;;2.30;;
55575;SDS011;41437;45.478;9.116;2023-04-24T08:43:37;6.00;;;2.50;;
55575;SDS011;41437;45.478;9.116;2023-04-24T08:46:39;4.53;;;2.30;;
55575;SDS011;41437;45.478;9.116;2023-04-24T08:49:41;7.20;;;2.47;;
55575;SDS011;41437;45.478;9.116;2023-04-24T08:52:43;6.72;;;2.40;;
55575;SDS011;41437;45.478;9.116;2023-04-24T08:55:46;5.57;;;2.42;;
55575;SDS011;41437;45.478;9.116;2023-04-24T08:58:49;10.57;;;3.70;;
55575;SDS011;41437;45.478;9.116;2023-04-24T09:01:50;5.35;;;2.70;;
55575;SDS011;41437;45.478;9.116;2023-04-24T09:04:52;13.75;;;3.78;;
55575;SDS011;41437;45.478;9.116;2023-04-24T09:07:54;4.28;;;2.30;;
55575;SDS011;41437;45.478;9.116;2023-04-24T09:10:56;6.78;;;2.50;;
55575;SDS011;41437;45.478;9.116;2023-04-24T09:13:59;3.50;;;1.83;;
55575;SDS011;41437;45.478;9.116;2023-04-24T09:17:01;4.00;;;2.00;;
55575;SDS011;41437;45.478;9.116;2023-04-24T09:20:03;5.43;;;2.13;;
55575;SDS011;41437;45.478;9.116;2023-04-24T09:23:05;4.10;;;2.30;;
55575;SDS011;41437;45.478;9.116;2023-04-24T09:26:07;4.57;;;2.33;;
55575;SDS011;41437;45.478;9.116;2023-04-24T09:29:15;8.40;;;2.90;;
55575;SDS011;41437;45.478;9.116;2023-04-24T09:32:19;7.50;;;2.40;;
55575;SDS011;41437;45.478;9.116;2023-04-24T09:35:21;11.77;;;3.72;;
55575;SDS011;41437;45.478;9.116;2023-04-24T09:38:30;5.13;;;2.20;;
55575;SDS011;41437;45.478;9.116;2023-04-24T09:41:32;4.55;;;2.10;;
55575;SDS011;41437;45.478;9.116;2023-04-24T09:44:34;4.55;;;2.63;;
55575;SDS011;41437;45.478;9.116;2023-04-24T09:47:36;4.23;;;2.50;;
55575;SDS011;41437;45.478;9.116;2023-04-24T09:50:37;3.28;;;2.13;;
55575;SDS011;41437;45.478;9.116;2023-04-24T09:53:39;3.85;;;2.40;;
55575;SDS011;41437;45.478;9.116;2023-04-24T09:56:46;3.90;;;2.40;;
55575;SDS011;41437;45.478;9.116;2023-04-24T09:59:50;4.55;;;2.20;;
55575;SDS011;41437;45.478;9.116;2023-04-24T10:02:54;3.50;;;2.00;;
55575;SDS011;41437;45.478;9.116;2023-04-24T10:05:58;4.78;;;2.10;;
55575;SDS011;41437;45.478;9.116;2023-04-24T10:08:59;5.53;;;2.42;;
55575;SDS011;41437;45.478;9.116;2023-04-24T10:12:00;9.27;;;2.10;;
55575;SDS011;41437;45.478;9.116;2023-04-24T10:15:05;6.85;;;1.98;;
55575;SDS011;41437;45.478;9.116;2023-04-24T10:21:08;5.45;;;1.60;;
55575;SDS011;41437;45.478;9.116;2023-04-24T10:24:10;3.00;;;1.55;;
55575;SDS011;41437;45.478;9.116;2023-04-24T10:27:11;2.88;;;1.40;;
55575;SDS011;41437;45.478;9.116;2023-04-24T10:30:16;2.83;;;1.48;;
55575;SDS011;41437;45.478;9.116;2023-04-24T10:33:19;11.13;;;2.10;;
55575;SDS011;41437;45.478;9.116;2023-04-24T10:36:20;5.13;;;1.45;;
55575;SDS011;41437;45.478;9.116;2023-04-24T10:39:22;5.75;;;1.60;;
55575;SDS011;41437;45.478;9.116;2023-04-24T10:42:24;8.73;;;2.05;;
55575;SDS011;41437;45.478;9.116;2023-04-24T10:45:29;7.53;;;1.85;;
55575;SDS011;41437;45.478;9.116;2023-04-24T10:48:31;8.17;;;1.70;;
55575;SDS011;41437;45.478;9.116;2023-04-24T10:51:48;2.83;;;1.27;;
55575;SDS011;41437;45.478;9.116;2023-04-24T10:54:49;4.32;;;1.48;;
55575;SDS011;41437;45.478;9.116;2023-04-24T10:58:03;7.03;;;1.92;;
55575;SDS011;41437;45.478;9.116;2023-04-24T11:01:06;4.63;;;1.40;;
55575;SDS011;41437;45.478;9.116;2023-04-24T11:04:08;3.88;;;1.60;;
55575;SDS011;41437;45.478;9.116;2023-04-24T11:07:12;2.15;;;1.10;;
55575;SDS011;41437;45.478;9.116;2023-04-24T11:10:24;3.03;;;1.23;;
55575;SDS011;41437;45.478;9.116;2023-04-24T11:13:29;4.47;;;1.33;;
55575;SDS011;41437;45.478;9.116;2023-04-24T11:16:52;7.07;;;2.33;;
55575;SDS011;41437;45.478;9.116;2023-04-24T11:19:57;3.92;;;1.63;;
55575;SDS011;41437;45.478;9.116;2023-04-24T11:23:03;4.32;;;1.15;;
55575;SDS011;41437;45.478;9.116;2023-04-24T11:26:11;8.05;;;1.40;;
55575;SDS011;41437;45.478;9.116;2023-04-24T11:29:12;7.78;;;1.40;;
55575;SDS011;41437;45.478;9.116;2023-04-24T11:32:16;2.35;;;1.08;;
55575;SDS011;41437;45.478;9.116;2023-04-24T11:35:19;12.77;;;1.92;;
55575;SDS011;41437;45.478;9.116;2023-04-24T11:38:21;30.67;;;3.58;;
55575;SDS011;41437;45.478;9.116;2023-04-24T11:41:22;40.90;;;3.28;;
55575;SDS011;41437;45.478;9.116;2023-04-24T11:44:23;23.05;;;2.42;;
55575;SDS011;41437;45.478;9.116;2023-04-24T11:47:30;48.80;;;4.88;;
55575;SDS011;41437;45.478;9.116;2023-04-24T11:50:33;13.90;;;2.38;;
55575;SDS011;41437;45.478;9.116;2023-04-24T11:53:35;19.27;;;2.70;;
55575;SDS011;41437;45.478;9.116;2023-04-24T11:56:37;5.43;;;1.50;;
55575;SDS011;41437;45.478;9.116;2023-04-24T11:59:38;3.15;;;1.35;;
55575;SDS011;41437;45.478;9.116;2023-04-24T12:02:41;7.53;;;1.75;;
55575;SDS011;41437;45.478;9.116;2023-04-24T12:05:43;6.20;;;1.80;;
55575;SDS011;41437;45.478;9.116;2023-04-24T12:08:48;2.90;;;1.08;;
55575;SDS011;41437;45.478;9.116;2023-04-24T12:11:52;12.18;;;1.95;;
55575;SDS011;41437;45.478;9.116;2023-04-24T12:14:55;3.75;;;1.20;;
55575;SDS011;41437;45.478;9.116;2023-04-24T12:17:58;8.33;;;1.60;;
55575;SDS011;41437;45.478;9.116;2023-04-24T12:21:15;8.13;;;1.63;;
55575;SDS011;41437;45.478;9.116;2023-04-24T12:24:17;6.57;;;1.92;;
55575;SDS011;41437;45.478;9.116;2023-04-24T12:27:19;9.80;;;1.50;;
55575;SDS011;41437;45.478;9.116;2023-04-24T12:30:21;3.38;;;0.98;;
55575;SDS011;41437;45.478;9.116;2023-04-24T12:33:25;2.05;;;1.02;;
55575;SDS011;41437;45.478;9.116;2023-04-24T12:36:26;2.78;;;1.27;;
55575;SDS011;41437;45.478;9.116;2023-04-24T12:39:28;10.85;;;2.50;;
55575;SDS011;41437;45.478;9.116;2023-04-24T12:42:30;4.47;;;1.30;;
55575;SDS011;41437;45.478;9.116;2023-04-24T12:45:31;2.15;;;1.10;;
55575;SDS011;41437;45.478;9.116;2023-04-24T12:48:34;18.55;;;5.90;;
55575;SDS011;41437;45.478;9.116;2023-04-24T12:51:35;3.80;;;1.15;;
55575;SDS011;41437;45.478;9.116;2023-04-24T12:54:37;4.88;;;1.00;;
55575;SDS011;41437;45.478;9.116;2023-04-24T12:57:38;5.10;;;1.10;;
55575;SDS011;41437;45.478;9.116;2023-04-24T13:00:40;6.00;;;1.20;;
55575;SDS011;41437;45.478;9.116;2023-04-24T13:03:44;10.38;;;2.17;;
55575;SDS011;41437;45.478;9.116;2023-04-24T13:06:46;1.90;;;0.77;;
55575;SDS011;41437;45.478;9.116;2023-04-24T13:09:47;4.18;;;0.90;;
55575;SDS011;41437;45.478;9.116;2023-04-24T13:12:49;1.92;;;0.75;;
55575;SDS011;41437;45.478;9.116;2023-04-24T13:15:50;6.07;;;1.27;;
55575;SDS011;41437;45.478;9.116;2023-04-24T13:18:53;6.88;;;1.00;;
55575;SDS011;41437;45.478;9.116;2023-04-24T13:21:54;5.22;;;0.90;;
55575;SDS011;41437;45.478;9.116;2023-04-24T13:24:56;1.60;;;0.70;;
55575;SDS011;41437;45.478;9.116;2023-04-24T13:27:58;2.78;;;1.00;;
55575;SDS011;41437;45.478;9.116;2023-04-24T13:30:59;5.30;;;1.10;;
55575;SDS011;41437;45.478;9.116;2023-04-24T13:34:02;1.27;;;0.65;;
55575;SDS011;41437;45.478;9.116;2023-04-24T13:37:04;8.70;;;1.58;;
55575;SDS011;41437;45.478;9.116;2023-04-24T13:40:06;1.38;;;0.60;;
55575;SDS011;41437;45.478;9.116;2023-04-24T13:43:07;4.60;;;0.80;;
55575;SDS011;41437;45.478;9.116;2023-04-24T13:46:09;1.15;;;0.60;;
55575;SDS011;41437;45.478;9.116;2023-04-24T13:49:12;3.67;;;1.10;;
55575;SDS011;41437;45.478;9.116;2023-04-24T13:52:13;8.48;;;1.00;;
55575;SDS011;41437;45.478;9.116;2023-04-24T13:55:15;25.25;;;2.55;;
55575;SDS011;41437;45.478;9.116;2023-04-24T13:58:16;4.35;;;1.00;;
55575;SDS011;41437;45.478;9.116;2023-04-24T14:01:17;11.55;;;1.42;;
55575;SDS011;41437;45.478;9.116;2023-04-24T14:04:20;8.30;;;1.38;;
55575;SDS011;41437;45.478;9.116;2023-04-24T14:07:21;17.27;;;2.00;;
55575;SDS011;41437;45.478;9.116;2023-04-24T14:10:23;18.05;;;2.13;;
55575;SDS011;41437;45.478;9.116;2023-04-24T14:13:24;10.73;;;1.38;;
55575;SDS011;41437;45.478;9.116;2023-04-24T14:16:25;14.65;;;1.48;;
55575;SDS011;41437;45.478;9.116;2023-04-24T14:19:28;1.77;;;0.47;;
55575;SDS011;41437;45.478;9.116;2023-04-24T14:22:30;5.55;;;0.85;;
55575;SDS011;41437;45.478;9.116;2023-04-24T14:25:31;7.47;;;0.85;;
55575;SDS011;41437;45.478;9.116;2023-04-24T14:28:33;2.08;;;0.60;;
55575;SDS011;41437;45.478;9.116;2023-04-24T14:31:35;6.20;;;0.90;;
55575;SDS011;41437;45.478;9.116;2023-04-24T14:34:54;5.03;;;0.80;;
55575;SDS011;41437;45.478;9.116;2023-04-24T14:37:58;9.05;;;0.93;;
55575;SDS011;41437;45.478;9.116;2023-04-24T14:41:00;18.30;;;1.75;;
55575;SDS011;41437;45.478;9.116;2023-04-24T14:44:07;17.20;;;1.58;;
55575;SDS011;41437;45.478;9.116;2023-04-24T14:47:08;8.20;;;1.10;;
55575;SDS011;41437;45.478;9.116;2023-04-24T14:50:13;3.20;;;0.70;;
55575;SDS011;41437;45.478;9.116;2023-04-24T14:53:15;1.42;;;0.60;;
55575;SDS011;41437;45.478;9.116;2023-04-24T14:56:16;1.58;;;0.60;;
55575;SDS011;41437;45.478;9.116;2023-04-24T14:59:17;13.00;;;1.70;;
55575;SDS011;41437;45.478;9.116;2023-04-24T15:02:19;5.60;;;1.00;;
55575;SDS011;41437;45.478;9.116;2023-04-24T15:05:24;9.35;;;1.60;;
55575;SDS011;41437;45.478;9.116;2023-04-24T15:08:26;3.58;;;0.73;;
55575;SDS011;41437;45.478;9.116;2023-04-24T15:11:27;3.10;;;0.73;;
55575;SDS011;41437;45.478;9.116;2023-04-24T15:14:28;3.55;;;0.73;;
55575;SDS011;41437;45.478;9.116;2023-04-24T15:17:30;0.93;;;0.55;;
55575;SDS011;41437;45.478;9.116;2023-04-24T15:20:33;1.42;;;0.60;;
55575;SDS011;41437;45.478;9.116;2023-04-24T15:23:34;0.40;;;0.40;;
55575;SDS011;41437;45.478;9.116;2023-04-24T15:26:36;3.25;;;0.90;;
55575;SDS011;41437;45.478;9.116;2023-04-24T15:29:37;3.92;;;1.10;;
55575;SDS011;41437;45.478;9.116;2023-04-24T15:32:38;1.20;;;0.75;;
55575;SDS011;41437;45.478;9.116;2023-04-24T15:35:41;2.17;;;0.70;;
55575;SDS011;41437;45.478;9.116;2023-04-24T15:38:43;1.10;;;0.55;;
55575;SDS011;41437;45.478;9.116;2023-04-24T15:41:44;2.17;;;0.73;;
55575;SDS011;41437;45.478;9.116;2023-04-24T15:44:46;1.63;;;0.60;;
55575;SDS011;41437;45.478;9.116;2023-04-24T15:47:47;1.50;;;0.77;;
55575;SDS011;41437;45.478;9.116;2023-04-24T15:50:50;1.92;;;0.63;;
55575;SDS011;41437;45.478;9.116;2023-04-24T15:53:51;1.50;;;0.60;;
55575;SDS011;41437;45.478;9.116;2023-04-24T15:56:52;1.70;;;0.50;;
55575;SDS011;41437;45.478;9.116;2023-04-24T15:59:54;1.08;;;0.60;;
55575;SDS011;41437;45.478;9.116;2023-04-24T16:02:55;2.35;;;0.70;;
55575;SDS011;41437;45.478;9.116;2023-04-24T16:05:58;1.20;;;0.70;;
55575;SDS011;41437;45.478;9.116;2023-04-24T16:08:59;1.33;;;0.70;;
55575;SDS011;41437;45.478;9.116;2023-04-24T16:12:01;1.40;;;0.60;;
55575;SDS011;41437;45.478;9.116;2023-04-24T16:15:02;1.90;;;0.60;;
55575;SDS011;41437;45.478;9.116;2023-04-24T16:18:04;2.53;;;0.60;;
55575;SDS011;41437;45.478;9.116;2023-04-24T16:21:07;1.95;;;0.70;;
55575;SDS011;41437;45.478;9.116;2023-04-24T16:27:10;2.00;;;0.65;;
55575;SDS011;41437;45.478;9.116;2023-04-24T16:30:12;1.40;;;0.60;;
55575;SDS011;41437;45.478;9.116;2023-04-24T16:33:13;2.78;;;0.80;;
55575;SDS011;41437;45.478;9.116;2023-04-24T16:36:16;1.90;;;0.70;;
55575;SDS011;41437;45.478;9.116;2023-04-24T16:39:17;2.35;;;0.88;;
55575;SDS011;41437;45.478;9.116;2023-04-24T16:42:18;2.58;;;0.70;;
55575;SDS011;41437;45.478;9.116;2023-04-24T16:45:20;3.17;;;0.80;;
55575;SDS011;41437;45.478;9.116;2023-04-24T16:48:21;1.13;;;0.60;;
55575;SDS011;41437;45.478;9.116;2023-04-24T16:51:24;1.00;;;0.70;;
55575;SDS011;41437;45.478;9.116;2023-04-24T16:54:26;2.35;;;0.80;;
55575;SDS011;41437;45.478;9.116;2023-04-24T16:57:29;1.95;;;0.80;;
55575;SDS011;41437;45.478;9.116;2023-04-24T17:00:30;2.38;;;0.70;;
55575;SDS011;41437;45.478;9.116;2023-04-24T17:03:32;2.55;;;0.80;;
55575;SDS011;41437;45.478;9.116;2023-04-24T17:06:34;2.03;;;0.80;;
55575;SDS011;41437;45.478;9.116;2023-04-24T17:09:36;2.05;;;0.90;;
55575;SDS011;41437;45.478;9.116;2023-04-24T17:12:37;2.80;;;0.80;;
55575;SDS011;41437;45.478;9.116;2023-04-24T17:15:38;1.17;;;0.73;;
55575;SDS011;41437;45.478;9.116;2023-04-24T17:18:40;1.55;;;0.80;;
55575;SDS011;41437;45.478;9.116;2023-04-24T17:21:42;1.83;;;0.77;;
55575;SDS011;41437;45.478;9.116;2023-04-24T17:24:44;1.75;;;0.80;;
55575;SDS011;41437;45.478;9.116;2023-04-24T17:27:46;1.83;;;0.90;;
55575;SDS011;41437;45.478;9.116;2023-04-24T17:30:47;2.53;;;1.25;;
55575;SDS011;41437;45.478;9.116;2023-04-24T17:33:49;1.98;;;0.77;;
55575;SDS011;41437;45.478;9.116;2023-04-24T17:36:51;3.30;;;0.90;;
55575;SDS011;41437;45.478;9.116;2023-04-24T17:39:53;1.25;;;0.80;;
55575;SDS011;41437;45.478;9.116;2023-04-24T17:42:54;2.17;;;0.73;;
55575;SDS011;41437;45.478;9.116;2023-04-24T17:45:55;2.03;;;0.80;;
55575;SDS011;41437;45.478;9.116;2023-04-24T17:48:58;1.97;;;0.80;;
55575;SDS011;41437;45.478;9.116;2023-04-24T17:52:01;1.42;;;0.80;;
55575;SDS011;41437;45.478;9.116;2023-04-24T17:55:02;2.10;;;0.73;;
55575;SDS011;41437;45.478;9.116;2023-04-24T17:58:04;2.97;;;0.95;;
55575;SDS011;41437;45.478;9.116;2023-04-24T18:01:05;2.72;;;0.98;;
55575;SDS011;41437;45.478;9.116;2023-04-24T18:04:07;2.35;;;1.02;;
55575;SDS011;41437;45.478;9.116;2023-04-24T18:07:09;2.50;;;1.00;;
55575;SDS011;41437;45.478;9.116;2023-04-24T18:10:11;3.07;;;1.00;;
55575;SDS011;41437;45.478;9.116;2023-04-24T18:13:12;3.83;;;1.00;;
55575;SDS011;41437;45.478;9.116;2023-04-24T18:16:13;2.95;;;1.05;;
55575;SDS011;41437;45.478;9.116;2023-04-24T18:19:15;1.75;;;0.85;;
55575;SDS011;41437;45.478;9.116;2023-04-24T18:22:17;4.05;;;1.50;;